Time;durP1;ratioP1;P1;durP2;ratioP2;P2;SDS_P1;SDS_P2;PMS_P1;PMS_P2;Temp;Humidity;BMP_temperature;BMP_pressure;BME280_temperature;BME280_humidity;BME280_pressure;Samples;Min_cycle;Max_cycle;Signal;HPM_P1;HPM_P2
2023/05/27 00:01:47;;;;;;;;;;;20.10;53.50;;;;;;10331524;28;1902;-73
2023/05/27 00:06:42;;;;;;;;;;;20.10;53.60;;;;;;10331923;28;821;-73
2023/05/27 00:11:37;;;;;;;;;;;20.10;53.60;;;;;;10330595;28;860;-73
2023/05/27 00:16:36;;;;;;;;;;;20.10;53.50;;;;;;10331100;28;913;-73
2023/05/27 00:21:31;;;;;;;;;;;20.10;53.50;;;;;;10330746;28;1902;-73
2023/05/27 00:26:27;;;;;;;;;;;20.20;53.50;;;;;;10330469;28;841;-73
2023/05/27 00:31:23;;;;;;;;;;;20.10;53.40;;;;;;10329728;28;834;-73
2023/05/27 00:36:18;;;;;;;;;;;20.10;53.50;;;;;;10329625;28;1192;-73
2023/05/27 00:41:13;;;;;;;;;;;20.10;53.40;;;;;;10329521;28;1910;-73
2023/05/27 00:46:09;;;;;;;;;;;20.10;53.40;;;;;;10329271;28;920;-73
2023/05/27 00:51:05;;;;;;;;;;;20.10;53.50;;;;;;10329848;28;1017;-73
2023/05/27 00:56:00;;;;;;;;;;;20.10;53.50;;;;;;10328916;28;876;-73
2023/05/27 01:00:56;;;;;;;;;;;20.00;53.40;;;;;;10328602;28;1901;-73
2023/05/27 01:05:51;;;;;;;;;;;20.10;53.50;;;;;;10329043;28;853;-73
2023/05/27 01:10:47;;;;;;;;;;;20.10;53.40;;;;;;10328867;28;913;-73
2023/05/27 01:15:42;;;;;;;;;;;20.10;53.50;;;;;;10328591;28;887;-73
2023/05/27 01:20:40;;;;;;;;;;;20.00;53.40;;;;;;10328407;28;1909;-73
2023/05/27 01:25:36;;;;;;;;;;;20.00;53.40;;;;;;10328182;28;861;-73
2023/05/27 01:30:31;;;;;;;;;;;20.00;53.50;;;;;;10327647;28;853;-73
2023/05/27 01:35:27;;;;;;;;;;;20.00;53.50;;;;;;10327145;28;1152;-73
2023/05/27 01:40:22;;;;;;;;;;;20.00;53.40;;;;;;10327473;28;1915;-73
2023/05/27 01:45:17;;;;;;;;;;;20.00;53.30;;;;;;10326816;28;924;-73
2023/05/27 01:50:14;;;;;;;;;;;20.10;53.30;;;;;;10326779;28;1009;-73
2023/05/27 01:55:09;;;;;;;;;;;20.10;53.30;;;;;;10327197;28;801;-73
2023/05/27 02:00:05;;;;;;;;;;;20.10;53.30;;;;;;10326370;28;1980;-73
2023/05/27 02:05:00;;;;;;;;;;;20.00;53.30;;;;;;10326959;28;954;-73
2023/05/27 02:09:56;;;;;;;;;;;20.00;53.30;;;;;;10326116;28;806;-73
2023/05/27 02:14:51;;;;;;;;;;;20.00;53.40;;;;;;10326936;28;838;-73
2023/05/27 02:19:47;;;;;;;;;;;20.00;53.40;;;;;;10325795;28;1973;-73
2023/05/27 02:24:42;;;;;;;;;;;20.00;53.40;;;;;;10325795;28;892;-73
2023/05/27 02:29:37;;;;;;;;;;;20.00;53.40;;;;;;10325639;28;955;-73
2023/05/27 02:34:36;;;;;;;;;;;20.00;53.40;;;;;;10326048;28;1325;-73
2023/05/27 02:39:32;;;;;;;;;;;20.00;53.30;;;;;;10325287;28;1902;-73
2023/05/27 02:44:27;;;;;;;;;;;20.00;53.30;;;;;;10325348;28;861;-73
2023/05/27 02:49:23;;;;;;;;;;;20.00;53.40;;;;;;10326077;28;830;-73
2023/05/27 02:54:18;;;;;;;;;;;20.00;53.40;;;;;;10333311;28;833;-73
2023/05/27 02:59:13;;;;;;;;;;;20.00;53.20;;;;;;10333380;28;1967;-73
2023/05/27 03:04:09;;;;;;;;;;;20.00;53.20;;;;;;10333236;28;879;-73
2023/05/27 03:09:04;;;;;;;;;;;20.00;53.20;;;;;;10333044;28;855;-73
2023/05/27 03:13:59;;;;;;;;;;;20.00;53.20;;;;;;10333383;28;814;-73
2023/05/27 03:18:55;;;;;;;;;;;20.00;53.30;;;;;;10332561;28;1898;-73
2023/05/27 03:23:50;;;;;;;;;;;20.00;53.20;;;;;;10331835;28;924;-73
2023/05/27 03:28:46;;;;;;;;;;;19.90;53.20;;;;;;10332813;28;885;-73
2023/05/27 03:33:41;;;;;;;;;;;19.90;53.30;;;;;;10332043;28;938;-73
2023/05/27 03:38:36;;;;;;;;;;;19.90;53.30;;;;;;10332389;28;1981;-73
2023/05/27 03:43:32;;;;;;;;;;;19.90;53.20;;;;;;10331957;28;873;-73
2023/05/27 03:48:27;;;;;;;;;;;19.90;53.80;;;;;;10332190;28;797;-73
2023/05/27 03:53:22;;;;;;;;;;;19.90;53.10;;;;;;10331493;28;758;-73
2023/05/27 03:58:18;;;;;;;;;;;20.00;53.10;;;;;;10330488;28;1894;-73
2023/05/27 04:03:14;;;;;;;;;;;19.90;53.10;;;;;;10331509;28;853;-73
2023/05/27 04:08:09;;;;;;;;;;;19.90;53.10;;;;;;10330302;28;920;-73
2023/05/27 04:13:04;;;;;;;;;;;19.90;53.00;;;;;;10331216;28;821;-73
2023/05/27 04:18:01;;;;;;;;;;;19.90;53.20;;;;;;10331074;28;2060;-73
2023/05/27 04:22:56;;;;;;;;;;;19.90;53.10;;;;;;10330238;28;809;-73
2023/05/27 04:27:52;;;;;;;;;;;19.90;53.10;;;;;;10330654;28;833;-73
2023/05/27 04:32:47;;;;;;;;;;;19.90;53.10;;;;;;10329859;28;782;-73
2023/05/27 04:37:44;;;;;;;;;;;19.90;53.00;;;;;;10330044;28;1906;-73
2023/05/27 04:42:39;;;;;;;;;;;19.90;52.90;;;;;;10329419;28;902;-73
2023/05/27 04:47:37;;;;;;;;;;;20.00;53.00;;;;;;10328715;28;897;-73
2023/05/27 04:52:38;;;;;;;;;;;20.00;52.90;;;;;;10329055;28;980;-74
2023/05/27 04:57:33;;;;;;;;;;;20.00;52.90;;;;;;10329345;28;1902;-72
2023/05/27 05:02:35;;;;;;;;;;;20.00;52.90;;;;;;10328649;28;850;-72
2023/05/27 05:07:30;;;;;;;;;;;20.00;52.80;;;;;;10328943;28;982;-72
2023/05/27 05:12:26;;;;;;;;;;;20.00;52.70;;;;;;10327824;28;866;-73
2023/05/27 05:17:24;;;;;;;;;;;20.00;52.70;;;;;;10327940;28;1957;-74
2023/05/27 05:22:20;;;;;;;;;;;20.00;52.80;;;;;;10327802;28;898;-73
2023/05/27 05:27:15;;;;;;;;;;;20.00;52.80;;;;;;10327697;28;806;-73
2023/05/27 05:32:11;;;;;;;;;;;20.00;52.90;;;;;;10328036;28;1023;-73
2023/05/27 05:37:06;;;;;;;;;;;20.00;52.90;;;;;;10327549;28;1156;-74
2023/05/27 05:42:02;;;;;;;;;;;20.00;52.90;;;;;;10327046;28;1909;-73
2023/05/27 05:46:58;;;;;;;;;;;20.00;53.00;;;;;;10327683;28;897;-74
2023/05/27 05:51:53;;;;;;;;;;;19.90;53.00;;;;;;10326715;28;747;-68
2023/05/27 05:56:48;;;;;;;;;;;19.90;53.20;;;;;;10326698;28;1166;-68
2023/05/27 06:01:44;;;;;;;;;;;19.80;53.10;;;;;;10326357;28;1901;-68
2023/05/27 06:06:42;;;;;;;;;;;19.80;53.20;;;;;;10326196;28;961;-68
2023/05/27 06:11:38;;;;;;;;;;;19.90;53.20;;;;;;10326099;28;774;-68
2023/05/27 06:16:35;;;;;;;;;;;19.90;53.20;;;;;;10325901;28;906;-68
2023/05/27 06:21:32;;;;;;;;;;;19.80;53.20;;;;;;10325817;28;1957;-68
2023/05/27 06:26:27;;;;;;;;;;;19.90;53.20;;;;;;10324850;28;840;-69
2023/05/27 06:31:23;;;;;;;;;;;19.90;53.20;;;;;;10325035;28;944;-72
2023/05/27 06:36:18;;;;;;;;;;;19.90;53.10;;;;;;10325313;28;1200;-69
2023/05/27 06:41:14;;;;;;;;;;;19.90;53.10;;;;;;10325366;28;1973;-69
2023/05/27 06:46:09;;;;;;;;;;;19.90;53.20;;;;;;10325331;28;908;-69
2023/05/27 06:51:05;;;;;;;;;;;19.90;53.20;;;;;;10326250;28;836;-69
2023/05/27 06:56:00;;;;;;;;;;;19.90;53.20;;;;;;10325202;28;778;-68
2023/05/27 07:00:55;;;;;;;;;;;20.00;53.30;;;;;;10325517;28;1894;-69
2023/05/27 07:05:51;;;;;;;;;;;20.00;53.30;;;;;;10324938;28;1230;-68
2023/05/27 07:10:46;;;;;;;;;;;20.00;53.30;;;;;;10324796;28;920;-68
2023/05/27 07:15:41;;;;;;;;;;;20.00;53.40;;;;;;10325344;28;892;-68
2023/05/27 07:20:37;;;;;;;;;;;20.00;53.60;;;;;;10324614;28;1906;-69
2023/05/27 07:25:32;;;;;;;;;;;19.90;53.70;;;;;;10324501;28;969;-67
2023/05/27 07:30:28;;;;;;;;;;;19.90;53.60;;;;;;10324415;28;873;-69
2023/05/27 07:35:23;;;;;;;;;;;19.90;53.70;;;;;;10324425;28;1295;-70
2023/05/27 07:40:18;;;;;;;;;;;19.90;53.50;;;;;;10331481;28;1910;-69
2023/05/27 07:45:14;;;;;;;;;;;19.80;53.40;;;;;;10331707;28;923;-70
2023/05/27 07:50:09;;;;;;;;;;;19.90;53.50;;;;;;10331492;28;765;-69
2023/05/27 07:55:04;;;;;;;;;;;19.90;53.50;;;;;;10331959;28;825;-69
2023/05/27 08:00:00;;;;;;;;;;;19.80;53.50;;;;;;10331902;28;1898;-69
2023/05/27 08:04:55;;;;;;;;;;;19.80;53.40;;;;;;10330827;28;855;-68
2023/05/27 08:09:51;;;;;;;;;;;19.80;53.40;;;;;;10330914;28;846;-69
2023/05/27 08:14:47;;;;;;;;;;;19.80;53.40;;;;;;10330586;28;980;-69
2023/05/27 08:19:42;;;;;;;;;;;19.80;53.50;;;;;;10330306;28;1971;-69
2023/05/27 08:24:38;;;;;;;;;;;19.80;53.50;;;;;;10330276;28;773;-69
2023/05/27 08:29:33;;;;;;;;;;;19.80;53.50;;;;;;10329992;28;845;-69
2023/05/27 08:34:29;;;;;;;;;;;19.80;53.70;;;;;;10329775;28;1105;-69
2023/05/27 08:39:24;;;;;;;;;;;19.80;53.70;;;;;;10329042;28;1906;-69
2023/05/27 08:44:20;;;;;;;;;;;19.80;53.60;;;;;;10329482;28;805;-70
2023/05/27 08:49:15;;;;;;;;;;;19.90;53.70;;;;;;10328607;28;798;-70
2023/05/27 08:54:10;;;;;;;;;;;19.90;53.70;;;;;;10329101;28;755;-68
2023/05/27 08:59:06;;;;;;;;;;;19.80;53.80;;;;;;10328402;28;1898;-70
2023/05/27 09:04:02;;;;;;;;;;;19.80;53.80;;;;;;10329254;28;848;-75
2023/05/27 09:08:57;;;;;;;;;;;19.80;54.00;;;;;;10327845;28;908;-74
2023/05/27 09:13:52;;;;;;;;;;;19.80;53.90;;;;;;10329007;28;912;-74
2023/05/27 09:18:48;;;;;;;;;;;19.80;54.00;;;;;;10327448;28;1902;-75
2023/05/27 09:23:43;;;;;;;;;;;19.80;53.90;;;;;;10328442;28;875;-75
2023/05/27 09:28:39;;;;;;;;;;;19.80;53.80;;;;;;10327712;28;869;-75
2023/05/27 09:33:35;;;;;;;;;;;19.80;53.80;;;;;;10327743;28;965;-74
2023/05/27 09:38:30;;;;;;;;;;;19.80;53.80;;;;;;10326537;28;1981;-75
2023/05/27 09:43:26;;;;;;;;;;;19.80;53.70;;;;;;10327044;28;825;-75
2023/05/27 09:48:21;;;;;;;;;;;19.80;53.70;;;;;;10327481;28;803;-75
2023/05/27 09:53:16;;;;;;;;;;;19.80;53.80;;;;;;10326725;28;936;-74
2023/05/27 09:58:12;;;;;;;;;;;19.80;53.80;;;;;;10326351;28;1945;-76
2023/05/27 10:03:07;;;;;;;;;;;19.90;53.70;;;;;;10326287;28;851;-68
2023/05/27 10:08:03;;;;;;;;;;;20.00;53.80;;;;;;10326188;28;968;-69
2023/05/27 10:12:58;;;;;;;;;;;19.90;53.80;;;;;;10326762;28;833;-70
2023/05/27 10:17:55;;;;;;;;;;;20.00;54.00;;;;;;10325911;28;1910;-71
2023/05/27 10:22:50;;;;;;;;;;;19.90;53.90;;;;;;10325879;28;989;-71
2023/05/27 10:27:45;;;;;;;;;;;20.00;53.90;;;;;;10325729;28;867;-71
2023/05/27 10:32:41;;;;;;;;;;;20.00;54.10;;;;;;10327252;28;862;-71
2023/05/27 10:37:36;;;;;;;;;;;20.00;54.10;;;;;;10324902;28;1973;-70
2023/05/27 10:42:31;;;;;;;;;;;20.00;54.10;;;;;;10325478;28;766;-72
2023/05/27 10:47:27;;;;;;;;;;;20.00;54.30;;;;;;10325351;28;891;-70
2023/05/27 10:52:23;;;;;;;;;;;20.00;54.20;;;;;;10326204;28;885;-71
2023/05/27 10:57:19;;;;;;;;;;;20.00;54.20;;;;;;10324474;28;904;-70
2023/05/27 11:02:15;;;;;;;;;;;20.00;54.20;;;;;;10325889;28;1965;-71
2023/05/27 11:07:10;;;;;;;;;;;20.00;54.20;;;;;;10325491;28;985;-70
2023/05/27 11:12:06;;;;;;;;;;;20.00;54.10;;;;;;10326781;28;1040;-70
2023/05/27 11:17:01;;;;;;;;;;;20.00;54.10;;;;;;10333060;28;820;-71
2023/05/27 11:21:56;;;;;;;;;;;20.00;54.10;;;;;;10332522;28;1914;-71
2023/05/27 11:26:52;;;;;;;;;;;20.00;54.10;;;;;;10332570;28;872;-72
2023/05/27 11:31:47;;;;;;;;;;;20.10;54.10;;;;;;10332204;28;870;-71
2023/05/27 11:36:44;;;;;;;;;;;20.00;53.90;;;;;;10332792;28;1671;-71
2023/05/27 11:41:39;;;;;;;;;;;20.10;54.00;;;;;;10332458;28;1981;-71
2023/05/27 11:46:35;;;;;;;;;;;20.00;53.90;;;;;;10331723;28;833;-71
2023/05/27 11:51:31;;;;;;;;;;;20.00;53.90;;;;;;10331638;28;900;-71
2023/05/27 11:56:28;;;;;;;;;;;20.10;53.90;;;;;;10331260;28;981;-71
2023/05/27 12:01:23;;;;;;;;;;;20.10;54.00;;;;;;10331018;28;1898;-71
2023/05/27 12:06:19;;;;;;;;;;;20.00;53.90;;;;;;10331298;28;912;-71
2023/05/27 12:11:14;;;;;;;;;;;20.10;54.00;;;;;;10331060;28;877;-71
2023/05/27 12:16:10;;;;;;;;;;;20.00;54.00;;;;;;10331022;28;826;-71
2023/05/27 12:21:06;;;;;;;;;;;20.00;54.00;;;;;;10330090;28;1964;-71
2023/05/27 12:26:02;;;;;;;;;;;20.10;54.00;;;;;;10328654;28;778;-71
2023/05/27 12:30:57;;;;;;;;;;;20.10;54.00;;;;;;10329249;28;794;-71
2023/05/27 12:35:53;;;;;;;;;;;20.10;54.00;;;;;;10329486;28;1194;-71
2023/05/27 12:40:48;;;;;;;;;;;20.10;54.00;;;;;;10328807;28;1985;-71
2023/05/27 12:45:44;;;;;;;;;;;20.10;54.00;;;;;;10328589;28;934;-71
2023/05/27 12:50:40;;;;;;;;;;;20.10;54.00;;;;;;10329040;28;833;-71
2023/05/27 12:55:36;;;;;;;;;;;20.10;54.00;;;;;;10328862;28;803;-71
2023/05/27 13:00:33;;;;;;;;;;;20.10;53.90;;;;;;10329187;28;1959;-71
2023/05/27 13:05:29;;;;;;;;;;;20.10;53.90;;;;;;10329089;28;862;-71
2023/05/27 13:10:24;;;;;;;;;;;20.20;53.90;;;;;;10328255;28;777;-71
2023/05/27 13:15:20;;;;;;;;;;;20.20;53.90;;;;;;10327997;28;786;-71
2023/05/27 13:20:15;;;;;;;;;;;20.10;53.90;;;;;;10327700;28;1902;-69
2023/05/27 13:25:13;;;;;;;;;;;20.20;53.90;;;;;;10327602;28;887;-69
2023/05/27 13:30:09;;;;;;;;;;;20.20;53.80;;;;;;10327460;28;861;-70
2023/05/27 13:35:04;;;;;;;;;;;20.20;53.80;;;;;;10327155;28;1510;-70
2023/05/27 13:39:59;;;;;;;;;;;20.20;53.80;;;;;;10326992;28;1914;-69
2023/05/27 13:44:55;;;;;;;;;;;20.30;53.90;;;;;;10327506;28;832;-70
2023/05/27 13:49:51;;;;;;;;;;;20.30;53.90;;;;;;10327301;28;837;-70
2023/05/27 13:54:46;;;;;;;;;;;20.30;53.80;;;;;;10326446;28;939;-71
2023/05/27 13:59:42;;;;;;;;;;;20.30;53.80;;;;;;10326259;28;1910;-71
2023/05/27 14:04:37;;;;;;;;;;;20.30;53.80;;;;;;10326373;28;921;-72
2023/05/27 14:09:32;;;;;;;;;;;20.30;53.90;;;;;;10325916;28;949;-72
2023/05/27 14:14:28;;;;;;;;;;;20.40;53.80;;;;;;10325824;28;853;-72
2023/05/27 14:19:23;;;;;;;;;;;20.40;53.80;;;;;;10326302;28;1972;-72
2023/05/27 14:24:19;;;;;;;;;;;20.50;53.70;;;;;;10325622;28;778;-72
2023/05/27 14:29:14;;;;;;;;;;;20.50;53.70;;;;;;10325674;28;838;-71
2023/05/27 14:34:10;;;;;;;;;;;20.60;53.80;;;;;;10325073;28;1433;-70
2023/05/27 14:39:06;;;;;;;;;;;20.60;53.70;;;;;;10325855;28;1959;-70
2023/05/27 14:44:01;;;;;;;;;;;20.60;53.60;;;;;;10325205;28;778;-70
2023/05/27 14:48:56;;;;;;;;;;;20.60;53.40;;;;;;10323665;28;905;-70
2023/05/27 14:53:52;;;;;;;;;;;20.70;53.40;;;;;;10324439;28;849;-70
2023/05/27 14:58:47;;;;;;;;;;;20.70;53.50;;;;;;10324833;28;1957;-72
2023/05/27 15:03:42;;;;;;;;;;;20.70;53.40;;;;;;10325566;28;913;-71
2023/05/27 15:08:38;;;;;;;;;;;20.80;53.40;;;;;;10325372;28;869;-73
2023/05/27 15:13:34;;;;;;;;;;;20.90;53.40;;;;;;10325242;28;1588;-70
2023/05/27 15:18:29;;;;;;;;;;;20.90;53.30;;;;;;10324469;28;1960;-70
2023/05/27 15:23:25;;;;;;;;;;;21.00;53.30;;;;;;10324989;28;874;-70
2023/05/27 15:28:20;;;;;;;;;;;21.00;53.30;;;;;;10324447;28;853;-71
2023/05/27 15:33:15;;;;;;;;;;;21.00;53.20;;;;;;10323981;28;946;-71
2023/05/27 15:38:14;;;;;;;;;;;21.00;53.20;;;;;;10323516;28;1906;-72
2023/05/27 15:43:09;;;;;;;;;;;21.10;53.30;;;;;;10324042;28;860;-71
2023/05/27 15:48:04;;;;;;;;;;;21.10;53.30;;;;;;10323956;28;727;-72
2023/05/27 15:53:00;;;;;;;;;;;21.10;53.30;;;;;;10323912;28;863;-71
2023/05/27 15:57:55;;;;;;;;;;;21.10;53.30;;;;;;10325676;28;1965;-71
2023/05/27 16:02:51;;;;;;;;;;;21.10;53.30;;;;;;10331002;28;889;-71
2023/05/27 16:07:46;;;;;;;;;;;21.10;53.40;;;;;;10330990;28;852;-71
2023/05/27 16:12:42;;;;;;;;;;;21.10;53.40;;;;;;10331576;28;919;-70
2023/05/27 16:17:37;;;;;;;;;;;21.10;53.50;;;;;;10331177;28;1906;-72
2023/05/27 16:22:32;;;;;;;;;;;21.10;54.20;;;;;;10331016;28;838;-72
2023/05/27 16:27:28;;;;;;;;;;;21.10;53.60;;;;;;10330265;28;966;-72
2023/05/27 16:32:24;;;;;;;;;;;21.20;53.50;;;;;;10330129;28;822;-72
2023/05/27 16:37:20;;;;;;;;;;;21.20;53.50;;;;;;10330710;28;1141;-72
2023/05/27 16:42:15;;;;;;;;;;;21.20;53.50;;;;;;10330241;28;1991;-72
2023/05/27 16:47:10;;;;;;;;;;;21.20;54.10;;;;;;10329528;28;859;-72
2023/05/27 16:52:06;;;;;;;;;;;21.20;53.60;;;;;;10329996;28;865;-72
2023/05/27 16:57:02;;;;;;;;;;;21.10;53.60;;;;;;10329985;28;844;-72
2023/05/27 17:01:57;;;;;;;;;;;21.00;53.60;;;;;;10329584;28;1910;-71
2023/05/27 17:06:53;;;;;;;;;;;21.00;53.70;;;;;;10329904;28;909;-72
2023/05/27 17:11:49;;;;;;;;;;;20.90;53.80;;;;;;10328326;28;1023;-69
2023/05/27 17:16:45;;;;;;;;;;;20.90;54.40;;;;;;10328540;28;854;-72
2023/05/27 17:21:40;;;;;;;;;;;20.90;53.80;;;;;;10328058;28;1906;-71
2023/05/27 17:26:36;;;;;;;;;;;20.90;54.40;;;;;;10328689;28;810;-72
2023/05/27 17:31:31;;;;;;;;;;;20.90;53.90;;;;;;10327967;28;928;-72
2023/05/27 17:36:26;;;;;;;;;;;20.90;53.90;;;;;;10327529;28;1212;-72
2023/05/27 17:41:22;;;;;;;;;;;20.80;53.90;;;;;;10327222;28;1977;-72
2023/05/27 17:46:17;;;;;;;;;;;20.90;54.00;;;;;;10327867;28;864;-72
2023/05/27 17:51:12;;;;;;;;;;;20.90;54.00;;;;;;10326359;28;857;-72
2023/05/27 17:56:08;;;;;;;;;;;20.80;54.00;;;;;;10326753;28;810;-72
2023/05/27 18:01:03;;;;;;;;;;;20.90;54.10;;;;;;10326581;28;1963;-72
2023/05/27 18:05:58;;;;;;;;;;;20.90;54.00;;;;;;10325851;28;871;-72
2023/05/27 18:10:54;;;;;;;;;;;20.90;54.00;;;;;;10326238;28;847;-72
2023/05/27 18:15:50;;;;;;;;;;;20.90;53.90;;;;;;10326330;28;921;-72
2023/05/27 18:20:45;;;;;;;;;;;21.00;54.00;;;;;;10325880;28;1965;-72
2023/05/27 18:25:41;;;;;;;;;;;21.00;54.00;;;;;;10325976;28;799;-72
2023/05/27 18:30:36;;;;;;;;;;;21.00;53.90;;;;;;10325780;28;938;-72
2023/05/27 18:35:31;;;;;;;;;;;21.00;54.00;;;;;;10326150;28;1212;-71
2023/05/27 18:40:29;;;;;;;;;;;21.00;54.00;;;;;;10326106;28;1917;-72
2023/05/27 18:45:24;;;;;;;;;;;21.00;54.00;;;;;;10325465;28;789;-72
2023/05/27 18:50:19;;;;;;;;;;;21.00;53.90;;;;;;10325312;28;859;-72
2023/05/27 18:55:15;;;;;;;;;;;21.00;53.90;;;;;;10325295;28;872;-71
2023/05/27 19:00:10;;;;;;;;;;;21.00;53.90;;;;;;10325669;28;1961;-71
2023/05/27 19:05:06;;;;;;;;;;;21.00;54.00;;;;;;10325976;28;837;-71
2023/05/27 19:10:01;;;;;;;;;;;21.00;54.00;;;;;;10324942;28;976;-71
2023/05/27 19:14:57;;;;;;;;;;;20.90;54.00;;;;;;10325447;28;850;-71
2023/05/27 19:19:52;;;;;;;;;;;20.90;54.00;;;;;;10324713;28;2008;-71
2023/05/27 19:24:48;;;;;;;;;;;20.90;54.00;;;;;;10324064;28;1398;-71
2023/05/27 19:29:43;;;;;;;;;;;20.90;54.10;;;;;;10325220;28;940;-71
2023/05/27 19:34:39;;;;;;;;;;;20.90;54.10;;;;;;10329863;28;1324;-71
2023/05/27 19:39:34;;;;;;;;;;;20.90;54.20;;;;;;10331958;28;1969;-71
2023/05/27 19:44:29;;;;;;;;;;;20.90;54.20;;;;;;10331883;28;955;-71
2023/05/27 19:49:25;;;;;;;;;;;20.90;54.30;;;;;;10331840;28;774;-71
2023/05/27 19:54:21;;;;;;;;;;;20.90;54.30;;;;;;10331534;28;857;-71
2023/05/27 19:59:16;;;;;;;;;;;20.80;54.30;;;;;;10331309;28;1959;-71
2023/05/27 20:04:11;;;;;;;;;;;20.80;54.30;;;;;;10331489;28;911;-71
2023/05/27 20:09:07;;;;;;;;;;;20.80;54.90;;;;;;10331129;28;849;-71
2023/05/27 20:14:02;;;;;;;;;;;20.80;54.40;;;;;;10331435;28;863;-71
2023/05/27 20:18:58;;;;;;;;;;;20.80;54.30;;;;;;10330575;28;1906;-71
2023/05/27 20:23:53;;;;;;;;;;;20.80;54.40;;;;;;10330522;28;986;-71
2023/05/27 20:28:48;;;;;;;;;;;20.70;54.20;;;;;;10330869;28;863;-71
2023/05/27 20:33:44;;;;;;;;;;;20.70;54.20;;;;;;10329972;28;1445;-72
2023/05/27 20:38:39;;;;;;;;;;;20.70;54.20;;;;;;10330200;28;2033;-71
2023/05/27 20:43:35;;;;;;;;;;;20.70;54.20;;;;;;10328499;28;866;-72
2023/05/27 20:48:30;;;;;;;;;;;20.70;54.10;;;;;;10329590;28;938;-71
2023/05/27 20:53:25;;;;;;;;;;;20.70;54.10;;;;;;10329955;28;861;-71
2023/05/27 20:58:21;;;;;;;;;;;20.60;54.00;;;;;;10329092;28;1981;-71
2023/05/27 21:03:16;;;;;;;;;;;20.60;53.90;;;;;;10328999;28;810;-71
2023/05/27 21:08:11;;;;;;;;;;;20.60;53.90;;;;;;10328161;28;878;-71
2023/05/27 21:13:07;;;;;;;;;;;20.60;53.90;;;;;;10328490;28;869;-71
2023/05/27 21:18:02;;;;;;;;;;;20.60;53.90;;;;;;10328304;28;1902;-71
2023/05/27 21:22:58;;;;;;;;;;;20.60;54.00;;;;;;10328735;28;842;-71
2023/05/27 21:27:53;;;;;;;;;;;20.60;54.10;;;;;;10328573;28;896;-71
2023/05/27 21:32:48;;;;;;;;;;;20.60;54.10;;;;;;10328292;28;1043;-71
2023/05/27 21:37:44;;;;;;;;;;;20.60;54.10;;;;;;10328982;28;1468;-71
2023/05/27 21:42:39;;;;;;;;;;;20.60;54.10;;;;;;10327270;28;2038;-71
2023/05/27 21:47:35;;;;;;;;;;;20.50;54.00;;;;;;10327961;28;1052;-71
2023/05/27 21:52:30;;;;;;;;;;;20.50;54.10;;;;;;10326981;28;769;-71
2023/05/27 21:57:25;;;;;;;;;;;20.50;54.10;;;;;;10326418;28;838;-71
2023/05/27 22:02:21;;;;;;;;;;;20.50;54.10;;;;;;10327212;28;1963;-71
2023/05/27 22:07:16;;;;;;;;;;;20.50;54.10;;;;;;10327049;28;987;-71
2023/05/27 22:12:12;;;;;;;;;;;20.50;54.10;;;;;;10326908;28;852;-71
2023/05/27 22:17:08;;;;;;;;;;;20.50;54.10;;;;;;10326730;28;952;-71
2023/05/27 22:22:05;;;;;;;;;;;20.40;54.10;;;;;;10326009;28;1967;-71
2023/05/27 22:27:00;;;;;;;;;;;20.50;54.10;;;;;;10325897;28;972;-71
2023/05/27 22:31:56;;;;;;;;;;;20.40;54.00;;;;;;10326431;28;882;-71
2023/05/27 22:36:51;;;;;;;;;;;20.40;54.10;;;;;;10325181;28;1263;-71
2023/05/27 22:41:46;;;;;;;;;;;20.40;54.00;;;;;;10308201;28;1909;-71
2023/05/27 22:46:42;;;;;;;;;;;20.40;54.10;;;;;;10325481;28;814;-71
2023/05/27 22:51:38;;;;;;;;;;;20.40;54.00;;;;;;10325337;28;938;-71
2023/05/27 22:56:33;;;;;;;;;;;20.30;53.90;;;;;;10325946;28;770;-71
2023/05/27 23:01:28;;;;;;;;;;;20.30;54.00;;;;;;10325132;28;1898;-71
2023/05/27 23:06:24;;;;;;;;;;;20.30;54.00;;;;;;10324661;28;971;-71
2023/05/27 23:11:19;;;;;;;;;;;20.30;54.00;;;;;;10333044;28;747;-71
2023/05/27 23:16:15;;;;;;;;;;;20.30;53.80;;;;;;10333128;28;913;-71
2023/05/27 23:21:10;;;;;;;;;;;20.30;54.00;;;;;;10332874;28;1910;-72
2023/05/27 23:26:05;;;;;;;;;;;20.40;53.70;;;;;;10333332;28;845;-71
2023/05/27 23:31:01;;;;;;;;;;;20.40;53.70;;;;;;10333292;28;838;-71
2023/05/27 23:35:56;;;;;;;;;;;20.40;53.60;;;;;;10332974;28;1362;-71
2023/05/27 23:40:52;;;;;;;;;;;20.40;53.60;;;;;;10332029;28;1972;-71
2023/05/27 23:45:47;;;;;;;;;;;20.40;53.50;;;;;;10331905;28;742;-70
2023/05/27 23:50:42;;;;;;;;;;;20.40;53.50;;;;;;10331731;28;884;-69
2023/05/27 23:55:38;;;;;;;;;;;20.40;53.40;;;;;;10332239;28;1000;-70
